createdAt,value
2022-07-30T00:01:36.359Z,1.30
2022-07-30T00:04:25.015Z,1.30
2022-07-30T00:07:14.225Z,1.30
2022-07-30T00:10:03.094Z,1.40
2022-07-30T00:12:52.519Z,1.30
2022-07-30T00:15:42.594Z,1.58
2022-07-30T00:18:31.318Z,1.20
2022-07-30T00:21:35.500Z,1.45
2022-07-30T00:24:25.335Z,1.20
2022-07-30T00:27:14.688Z,1.30
2022-07-30T00:30:04.566Z,1.40
2022-07-30T00:32:54.558Z,1.30
2022-07-30T00:35:43.248Z,1.33
2022-07-30T00:38:31.839Z,1.40
2022-07-30T00:41:20.553Z,1.63
2022-07-30T00:44:10.484Z,1.58
2022-07-30T00:46:59.510Z,1.83
2022-07-30T00:49:49.698Z,1.40
2022-07-30T00:52:39.453Z,1.40
2022-07-30T00:55:28.191Z,1.55
2022-07-30T00:58:16.724Z,1.30
2022-07-30T01:01:05.456Z,1.40
2022-07-30T01:03:54.640Z,1.40
2022-07-30T01:06:44.645Z,1.30
2022-07-30T01:09:33.597Z,1.40
2022-07-30T01:12:26.127Z,1.50
2022-07-30T01:15:15.259Z,1.38
2022-07-30T01:18:07.545Z,1.30
2022-07-30T01:21:05.793Z,1.13
2022-07-30T01:23:59.854Z,1.45
2022-07-30T01:26:50.502Z,1.50
2022-07-30T01:29:42.272Z,1.77
2022-07-30T01:32:34.343Z,1.60
2022-07-30T01:35:25.741Z,1.30
2022-07-30T01:38:16.772Z,1.40
2022-07-30T01:41:07.438Z,1.45
2022-07-30T01:43:59.158Z,1.50
2022-07-30T01:46:48.802Z,1.38
2022-07-30T01:49:39.420Z,1.50
2022-07-30T01:52:31.159Z,1.60
2022-07-30T01:55:31.578Z,1.30
2022-07-30T01:58:22.290Z,1.20
2022-07-30T02:01:20.734Z,1.45
2022-07-30T02:04:09.844Z,2.00
2022-07-30T02:07:04.280Z,1.48
2022-07-30T02:09:59.496Z,1.27
2022-07-30T02:12:53.527Z,1.50
2022-07-30T02:15:49.564Z,1.13
2022-07-30T02:18:45.131Z,1.60
2022-07-30T02:21:50.701Z,1.75
2022-07-30T02:24:42.855Z,1.55
2022-07-30T02:27:33.690Z,1.50
2022-07-30T02:30:27.857Z,1.50
2022-07-30T02:33:19.984Z,1.30
2022-07-30T02:36:11.607Z,1.50
2022-07-30T02:39:00.894Z,1.40
2022-07-30T02:41:51.391Z,1.50
2022-07-30T02:44:43.584Z,1.60
2022-07-30T02:47:34.132Z,1.52
2022-07-30T02:50:26.051Z,1.40
2022-07-30T02:53:18.365Z,1.48
2022-07-30T02:56:09.678Z,1.60
2022-07-30T02:59:00.129Z,1.52
2022-07-30T03:01:50.127Z,1.30
2022-07-30T03:04:40.393Z,1.35
2022-07-30T03:07:29.835Z,1.83
2022-07-30T03:10:20.154Z,1.63
2022-07-30T03:13:10.817Z,1.88
2022-07-30T03:16:01.028Z,1.48
2022-07-30T03:18:50.955Z,1.38
2022-07-30T03:21:43.835Z,1.30
2022-07-30T03:24:33.724Z,1.40
2022-07-30T03:27:24.267Z,1.35
2022-07-30T03:30:14.540Z,1.55
2022-07-30T03:33:03.977Z,1.40
2022-07-30T03:35:53.315Z,1.80
2022-07-30T03:38:44.063Z,1.45
2022-07-30T03:41:33.772Z,1.65
2022-07-30T03:44:24.934Z,1.30
2022-07-30T03:47:14.622Z,1.65
2022-07-30T03:50:08.830Z,1.75
2022-07-30T03:52:59.480Z,1.40
2022-07-30T03:55:50.193Z,1.20
2022-07-30T03:58:57.768Z,1.98
2022-07-30T04:01:48.197Z,1.60
2022-07-30T04:04:45.522Z,1.52
2022-07-30T04:07:34.321Z,1.40
2022-07-30T04:10:30.247Z,1.60
2022-07-30T04:13:21.768Z,1.30
2022-07-30T04:16:41.345Z,1.40
2022-07-30T04:19:32.859Z,1.58
2022-07-30T04:22:28.523Z,1.60
2022-07-30T04:25:20.454Z,1.50
2022-07-30T04:28:14.822Z,1.50
2022-07-30T04:31:04.389Z,1.50
2022-07-30T04:33:53.297Z,1.63
2022-07-30T04:36:51.624Z,1.50
2022-07-30T04:39:40.303Z,1.58
2022-07-30T04:42:29.908Z,1.60
2022-07-30T04:45:31.565Z,1.50
2022-07-30T04:48:22.441Z,1.65
2022-07-30T04:51:35.958Z,1.85
2022-07-30T04:54:27.673Z,1.52
2022-07-30T04:57:18.257Z,1.65
2022-07-30T05:00:08.302Z,1.67
2022-07-30T05:02:59.979Z,1.70
2022-07-30T05:05:50.405Z,3.75
2022-07-30T05:08:42.380Z,1.60
2022-07-30T05:11:34.537Z,1.52
2022-07-30T05:14:23.871Z,1.60
2022-07-30T05:17:12.574Z,1.40
2022-07-30T05:20:01.574Z,1.30
2022-07-30T05:22:56.061Z,1.83
2022-07-30T05:25:45.908Z,1.50
2022-07-30T05:28:50.689Z,1.38
2022-07-30T05:31:46.521Z,1.60
2022-07-30T05:34:35.569Z,1.50
2022-07-30T05:37:24.238Z,1.67
2022-07-30T05:40:14.423Z,1.67
2022-07-30T05:43:21.026Z,1.63
2022-07-30T05:46:11.148Z,1.70
2022-07-30T05:49:00.039Z,1.40
2022-07-30T05:51:50.502Z,1.63
2022-07-30T05:54:39.844Z,2.00
2022-07-30T05:57:46.714Z,1.40
2022-07-30T06:00:35.785Z,1.60
2022-07-30T06:03:26.345Z,1.65
2022-07-30T06:06:53.752Z,1.90
2022-07-30T06:09:43.854Z,1.73
2022-07-30T06:12:33.416Z,2.05
2022-07-30T06:15:26.081Z,1.80
2022-07-30T06:18:16.549Z,1.45
2022-07-30T06:21:10.638Z,1.55
2022-07-30T06:24:29.083Z,1.95
2022-07-30T06:27:31.326Z,1.52
2022-07-30T06:30:21.203Z,2.00
2022-07-30T06:33:19.826Z,1.98
2022-07-30T06:36:13.855Z,2.10
2022-07-30T06:39:53.592Z,1.70
2022-07-30T06:42:36.896Z,2.00
2022-07-30T06:45:56.312Z,1.60
2022-07-30T06:48:46.782Z,1.63
2022-07-30T06:51:36.781Z,1.88
2022-07-30T06:54:25.548Z,1.67
2022-07-30T06:57:37.550Z,2.03
2022-07-30T07:00:35.939Z,1.83
2022-07-30T07:03:39.519Z,1.65
2022-07-30T07:06:29.579Z,1.80
2022-07-30T07:09:19.741Z,1.90
2022-07-30T07:12:35.978Z,1.80
2022-07-30T07:15:37.098Z,2.20
2022-07-30T07:18:28.628Z,2.00
2022-07-30T07:21:22.807Z,1.92
2022-07-30T07:24:13.184Z,2.10
2022-07-30T07:27:26.200Z,1.83
2022-07-30T07:30:18.821Z,2.13
2022-07-30T07:33:08.864Z,1.90
2022-07-30T07:35:57.639Z,1.85
2022-07-30T07:38:50.228Z,1.88
2022-07-30T07:41:48.867Z,1.85
2022-07-30T07:44:41.679Z,1.83
2022-07-30T07:47:31.775Z,2.22
2022-07-30T07:50:31.481Z,1.95
2022-07-30T07:53:20.171Z,1.92
2022-07-30T07:56:09.576Z,1.85
2022-07-30T07:59:00.331Z,2.30
2022-07-30T08:01:52.420Z,2.45
2022-07-30T08:04:59.869Z,2.00
2022-07-30T08:08:03.823Z,2.22
2022-07-30T08:11:24.613Z,2.00
2022-07-30T08:14:42.198Z,2.20
2022-07-30T08:17:50.590Z,2.08
2022-07-30T08:20:56.350Z,2.05
2022-07-30T08:23:50.368Z,2.08
2022-07-30T08:26:39.164Z,2.22
2022-07-30T08:29:27.994Z,2.00
2022-07-30T08:32:16.887Z,2.20
2022-07-30T08:35:09.762Z,2.10
2022-07-30T08:37:58.638Z,2.75
2022-07-30T08:40:48.505Z,2.25
2022-07-30T08:43:38.310Z,2.00
2022-07-30T08:46:30.984Z,2.17
2022-07-30T08:49:27.704Z,2.10
2022-07-30T08:52:18.763Z,1.92
2022-07-30T08:55:14.641Z,2.70
2022-07-30T08:58:03.594Z,2.00
2022-07-30T09:00:52.439Z,2.33
2022-07-30T09:03:44.070Z,2.00
2022-07-30T09:06:33.861Z,2.40
2022-07-30T09:09:26.971Z,2.30
2022-07-30T09:12:37.243Z,2.20
2022-07-30T09:15:28.525Z,2.60
2022-07-30T09:18:28.411Z,2.95
2022-07-30T09:21:20.181Z,2.67
2022-07-30T09:24:14.010Z,2.30
2022-07-30T09:27:13.236Z,2.30
2022-07-30T09:30:11.954Z,2.50
2022-07-30T09:33:34.345Z,2.13
2022-07-30T09:36:41.750Z,2.30
2022-07-30T09:39:41.787Z,2.13
2022-07-30T09:42:47.285Z,2.03
2022-07-30T09:45:37.741Z,2.08
2022-07-30T09:48:28.719Z,2.15
2022-07-30T09:51:19.341Z,2.60
2022-07-30T09:54:11.794Z,2.20
2022-07-30T09:57:25.656Z,2.17
2022-07-30T10:00:23.680Z,2.15
2022-07-30T10:03:38.471Z,2.08
2022-07-30T10:06:49.844Z,2.20
2022-07-30T10:09:49.818Z,2.40
2022-07-30T10:12:40.932Z,2.20
2022-07-30T10:15:33.092Z,1.90
2022-07-30T10:18:23.971Z,2.17
2022-07-30T10:21:45.128Z,2.33
2022-07-30T10:24:56.504Z,2.10
2022-07-30T10:28:05.611Z,2.17
2022-07-30T10:30:58.568Z,2.08
2022-07-30T10:33:48.597Z,2.00
2022-07-30T10:36:37.791Z,2.20
2022-07-30T10:39:34.529Z,2.00
2022-07-30T10:42:36.291Z,2.40
2022-07-30T10:45:37.887Z,2.00
2022-07-30T10:48:35.924Z,2.17
2022-07-30T10:51:43.253Z,2.00
2022-07-30T10:54:40.214Z,2.10
2022-07-30T10:57:32.271Z,2.50
2022-07-30T11:00:30.345Z,2.05
2022-07-30T11:03:23.589Z,2.28
2022-07-30T11:06:30.956Z,2.45
2022-07-30T11:09:40.827Z,2.70
2022-07-30T11:12:56.187Z,2.53
2022-07-30T11:15:56.218Z,2.55
2022-07-30T11:19:53.322Z,2.70
2022-07-30T11:22:28.353Z,2.30
2022-07-30T11:25:51.124Z,2.47
2022-07-30T11:28:45.938Z,2.50
2022-07-30T11:32:07.392Z,2.33
2022-07-30T11:34:48.092Z,2.22
2022-07-30T11:38:15.709Z,3.03
2022-07-30T11:41:11.440Z,2.83
2022-07-30T11:44:31.020Z,3.28
2022-07-30T11:47:19.742Z,2.70
2022-07-30T11:50:08.776Z,3.30
2022-07-30T11:52:59.679Z,3.50
2022-07-30T11:55:53.645Z,3.30
2022-07-30T11:58:42.219Z,3.55
2022-07-30T12:01:31.832Z,3.08
2022-07-30T12:04:20.853Z,3.30
2022-07-30T12:07:09.497Z,4.13
2022-07-30T12:10:14.092Z,3.58
2022-07-30T12:13:13.476Z,3.97
2022-07-30T12:16:02.147Z,4.30
2022-07-30T12:18:50.998Z,4.00
2022-07-30T12:21:41.661Z,3.78
2022-07-30T12:24:30.236Z,4.75
2022-07-30T12:27:19.162Z,4.07
2022-07-30T12:30:10.434Z,3.38
2022-07-30T12:32:58.976Z,3.90
2022-07-30T12:35:49.368Z,3.67
2022-07-30T12:38:48.076Z,3.55
2022-07-30T12:41:43.999Z,4.57
2022-07-30T12:44:36.516Z,3.72
2022-07-30T12:47:28.853Z,3.10
2022-07-30T12:50:18.517Z,3.70
2022-07-30T12:53:07.234Z,3.63
2022-07-30T12:56:12.216Z,3.28
2022-07-30T12:59:01.428Z,3.35
2022-07-30T13:01:52.427Z,3.47
2022-07-30T13:04:58.956Z,3.63
2022-07-30T13:08:00.550Z,3.67
2022-07-30T13:10:57.192Z,3.33
2022-07-30T13:13:49.453Z,3.25
2022-07-30T13:16:38.557Z,3.40
2022-07-30T13:19:28.146Z,3.60
2022-07-30T13:22:18.078Z,3.55
2022-07-30T13:25:07.460Z,3.47
2022-07-30T13:27:55.936Z,3.72
2022-07-30T13:30:44.610Z,3.30
2022-07-30T13:33:33.352Z,3.03
2022-07-30T13:36:21.908Z,3.83
2022-07-30T13:39:12.618Z,3.40
2022-07-30T13:42:01.294Z,3.75
2022-07-30T13:44:49.905Z,3.97
2022-07-30T13:47:38.465Z,4.30
2022-07-30T13:50:28.777Z,5.30
2022-07-30T13:53:17.432Z,4.95
2022-07-30T13:56:12.469Z,4.00
2022-07-30T13:59:01.551Z,4.75
2022-07-30T14:01:50.166Z,4.10
2022-07-30T14:04:38.701Z,4.35
2022-07-30T14:07:27.381Z,4.72
2022-07-30T14:10:15.922Z,4.13
2022-07-30T14:13:06.803Z,4.70
2022-07-30T14:15:55.680Z,4.70
2022-07-30T14:18:44.230Z,5.00
2022-07-30T14:21:32.779Z,3.78
2022-07-30T14:24:22.264Z,4.78
2022-07-30T14:27:10.806Z,4.97
2022-07-30T14:30:00.925Z,4.95
2022-07-30T14:32:52.452Z,3.60
2022-07-30T14:35:44.380Z,4.18
2022-07-30T14:38:32.873Z,4.55
2022-07-30T14:41:21.543Z,3.65
2022-07-30T14:44:12.450Z,3.40
2022-07-30T14:47:03.144Z,3.53
2022-07-30T14:49:52.036Z,3.20
2022-07-30T14:52:40.574Z,3.45
2022-07-30T14:55:29.154Z,3.50
2022-07-30T14:58:17.744Z,3.45
2022-07-30T15:01:15.717Z,3.60
2022-07-30T15:04:09.576Z,3.13
2022-07-30T15:06:58.365Z,3.35
2022-07-30T15:09:47.631Z,3.33
2022-07-30T15:12:37.111Z,3.40
2022-07-30T15:15:25.905Z,3.00
2022-07-30T15:18:17.715Z,3.10
2022-07-30T15:21:07.577Z,2.90
2022-07-30T15:23:56.201Z,3.20
2022-07-30T15:26:44.914Z,2.97
2022-07-30T15:29:33.819Z,2.70
2022-07-30T15:32:22.391Z,3.13
2022-07-30T15:35:13.797Z,2.70
2022-07-30T15:38:04.573Z,3.17
2022-07-30T15:40:53.140Z,3.05
2022-07-30T15:43:42.945Z,2.80
2022-07-30T15:46:31.465Z,3.03
2022-07-30T15:49:20.049Z,2.72
2022-07-30T15:52:08.678Z,2.97
2022-07-30T15:54:59.438Z,2.78
2022-07-30T15:57:48.743Z,2.60
2022-07-30T16:00:37.767Z,2.80
2022-07-30T16:03:29.041Z,2.80
2022-07-30T16:06:17.713Z,2.88
2022-07-30T16:09:07.444Z,2.83
2022-07-30T16:11:57.407Z,2.90
2022-07-30T16:14:46.945Z,2.72
2022-07-30T16:17:35.536Z,2.83
2022-07-30T16:20:25.831Z,2.85
2022-07-30T16:23:19.470Z,2.70
2022-07-30T16:26:09.888Z,2.75
2022-07-30T16:28:59.911Z,2.55
2022-07-30T16:31:48.931Z,2.60
2022-07-30T16:34:37.480Z,3.03
2022-07-30T16:37:26.041Z,2.65
2022-07-30T16:40:14.784Z,2.90
2022-07-30T16:43:03.363Z,2.30
2022-07-30T16:45:53.286Z,2.38
2022-07-30T16:48:41.984Z,2.92
2022-07-30T16:51:31.083Z,2.58
2022-07-30T16:54:19.729Z,2.72
2022-07-30T16:57:10.399Z,2.22
2022-07-30T16:59:59.454Z,3.08
2022-07-30T17:02:49.357Z,2.55
2022-07-30T17:05:37.917Z,2.60
2022-07-30T17:08:33.939Z,2.53
2022-07-30T17:11:47.217Z,2.38
2022-07-30T17:14:32.714Z,2.80
2022-07-30T17:17:21.332Z,2.67
2022-07-30T17:20:13.268Z,3.15
2022-07-30T17:23:01.813Z,2.65
2022-07-30T17:25:50.400Z,2.65
2022-07-30T17:28:39.377Z,2.70
2022-07-30T17:31:28.884Z,2.67
2022-07-30T17:34:20.563Z,2.85
2022-07-30T17:37:11.422Z,2.83
2022-07-30T17:40:19.202Z,2.75
2022-07-30T17:43:08.508Z,2.92
2022-07-30T17:45:57.269Z,2.88
2022-07-30T17:48:46.180Z,3.03
2022-07-30T17:51:36.472Z,2.97
2022-07-30T17:54:26.367Z,2.50
2022-07-30T17:57:15.712Z,2.60
2022-07-30T18:00:05.001Z,2.90
2022-07-30T18:02:53.524Z,3.03
2022-07-30T18:05:42.020Z,2.92
2022-07-30T18:08:32.762Z,2.75
2022-07-30T18:11:22.824Z,3.45
2022-07-30T18:14:11.350Z,3.25
2022-07-30T18:17:00.788Z,3.30
2022-07-30T18:19:49.436Z,2.70
2022-07-30T18:22:40.429Z,3.20
2022-07-30T18:25:29.370Z,2.97
2022-07-30T18:28:39.313Z,3.20
2022-07-30T18:31:28.048Z,3.28
2022-07-30T18:34:16.607Z,3.03
2022-07-30T18:37:05.463Z,2.95
2022-07-30T18:39:54.108Z,3.05
2022-07-30T18:42:43.535Z,3.15
2022-07-30T18:45:36.967Z,3.42
2022-07-30T18:48:26.475Z,3.20
2022-07-30T18:51:15.084Z,3.38
2022-07-30T18:54:03.689Z,3.40
2022-07-30T18:56:52.393Z,3.28
2022-07-30T18:59:40.903Z,2.80
2022-07-30T19:02:30.969Z,3.17
2022-07-30T19:05:19.633Z,2.92
2022-07-30T19:08:09.564Z,3.55
2022-07-30T19:10:58.207Z,3.20
2022-07-30T19:13:46.880Z,3.15
2022-07-30T19:16:35.744Z,3.35
2022-07-30T19:19:25.735Z,3.17
2022-07-30T19:22:14.385Z,3.45
2022-07-30T19:25:03.154Z,3.03
2022-07-30T19:27:51.812Z,3.25
2022-07-30T19:30:40.896Z,3.08
2022-07-30T19:33:29.468Z,2.90
2022-07-30T19:36:21.164Z,3.50
2022-07-30T19:39:13.259Z,3.38
2022-07-30T19:42:10.053Z,3.50
2022-07-30T19:44:59.104Z,3.47
2022-07-30T19:47:50.094Z,3.40
2022-07-30T19:50:38.858Z,3.22
2022-07-30T19:53:31.502Z,3.38
2022-07-30T19:56:23.503Z,3.25
2022-07-30T19:59:15.147Z,3.08
2022-07-30T20:02:04.267Z,3.22
2022-07-30T20:04:56.932Z,3.38
2022-07-30T20:07:45.790Z,3.10
2022-07-30T20:10:36.478Z,3.42
2022-07-30T20:13:45.271Z,3.00
2022-07-30T20:16:35.653Z,3.20
2022-07-30T20:19:24.470Z,3.10
2022-07-30T20:22:13.591Z,3.10
2022-07-30T20:25:04.606Z,3.60
2022-07-30T20:27:54.588Z,3.15
2022-07-30T20:30:43.269Z,3.03
2022-07-30T20:33:36.047Z,3.22
2022-07-30T20:36:29.142Z,3.47
2022-07-30T20:39:19.786Z,3.40
2022-07-30T20:42:08.981Z,4.82
2022-07-30T20:44:59.483Z,3.28
2022-07-30T20:47:48.923Z,3.00
2022-07-30T20:50:39.064Z,2.80
2022-07-30T20:53:36.885Z,3.40
2022-07-30T20:56:25.661Z,5.60
2022-07-30T20:59:14.255Z,5.00
2022-07-30T21:02:05.429Z,4.43
2022-07-30T21:04:59.420Z,5.15
2022-07-30T21:07:52.880Z,5.43
2022-07-30T21:10:44.492Z,5.60
2022-07-30T21:13:33.890Z,5.30
2022-07-30T21:16:23.715Z,5.05
2022-07-30T21:19:16.755Z,4.85
2022-07-30T21:22:07.095Z,6.30
2022-07-30T21:24:55.641Z,6.10
2022-07-30T21:27:45.227Z,6.93
2022-07-30T21:30:35.916Z,5.97
2022-07-30T21:36:37.293Z,6.13
2022-07-30T21:39:28.750Z,10.68
2022-07-30T21:42:17.771Z,11.07
2022-07-30T21:45:14.614Z,6.95
2022-07-30T21:48:03.506Z,6.22
2022-07-30T21:50:53.758Z,6.22
2022-07-30T21:53:46.326Z,6.18
2022-07-30T21:56:35.440Z,6.60
2022-07-30T21:59:30.358Z,6.75
2022-07-30T22:02:19.852Z,6.88
2022-07-30T22:05:10.743Z,5.45
2022-07-30T22:07:59.398Z,5.90
2022-07-30T22:10:50.757Z,6.22
2022-07-30T22:13:51.289Z,6.32
2022-07-30T22:16:46.200Z,6.30
2022-07-30T22:19:35.419Z,5.72
2022-07-30T22:22:26.627Z,5.38
2022-07-30T22:25:16.963Z,4.85
2022-07-30T22:28:06.957Z,5.70
2022-07-30T22:30:56.384Z,5.53
2022-07-30T22:33:45.007Z,5.40
2022-07-30T22:36:33.790Z,5.32
2022-07-30T22:39:22.283Z,5.47
2022-07-30T22:42:12.590Z,5.28
2022-07-30T22:45:03.114Z,6.00
2022-07-30T22:47:54.271Z,5.55
2022-07-30T22:50:44.241Z,5.60
2022-07-30T22:54:11.151Z,5.30
2022-07-30T22:56:46.268Z,4.57
2022-07-30T22:59:58.574Z,5.47
2022-07-30T23:02:46.790Z,5.15
2022-07-30T23:05:35.639Z,5.35
2022-07-30T23:08:29.445Z,5.03
2022-07-30T23:11:19.091Z,5.00
2022-07-30T23:12:31.225Z,6.18
2022-07-30T23:14:10.350Z,5.20
2022-07-30T23:16:58.914Z,4.80
2022-07-30T23:19:52.438Z,4.68
2022-07-30T23:22:40.923Z,4.82
2022-07-30T23:25:34.605Z,4.80
2022-07-30T23:28:27.732Z,5.00
2022-07-30T23:31:16.470Z,4.90
2022-07-30T23:34:06.437Z,4.80
2022-07-30T23:36:56.386Z,5.50
2022-07-30T23:39:44.941Z,4.78
2022-07-30T23:42:33.550Z,5.40
2022-07-30T23:45:22.143Z,4.95
2022-07-30T23:48:21.789Z,5.32
2022-07-30T23:51:10.273Z,5.32
2022-07-30T23:54:00.140Z,5.40
2022-07-30T23:56:49.802Z,5.03
2022-07-30T23:59:41.672Z,5.30
